Big Torch Key, Florida
Current Conditions -  °F | °C
As of 11:27 AM on Friday 24 Oct 2014 (Local Time) from KNQX Reporting Station
Overcast Overcast  
Wind Chill: 77°   Ceiling: 1400
Heat Index: 78°   Visibility: 10mi
Dew Point: 72°   Wind: 15mph
Humidity: 84%   Direction: 30°NNE
Pressure: 29.87"   Gusts: 23mph
Location:  24.6465°N, 81.5399°W
Report Text: KNQX 241527Z 03013G20KT 10SM BKN014 BKN040 OVC070 25/22 A2987 RMK AO2 T02500222 $
Loading
Personal Weather Stations






























Interactive Weather Map New forecast layout! Learn more

10-Day Weather Forecast

Advertisements
Track Severe Weather on mobile